Time;durP1;ratioP1;P1;durP2;ratioP2;P2;SDS_P1;SDS_P2;PMS_P1;PMS_P2;Temp;Humidity;BMP_temperature;BMP_pressure;BME280_temperature;BME280_humidity;BME280_pressure;Samples;Min_cycle;Max_cycle;Signal;HPM_P1;HPM_P2
2023/10/04 00:01:25;;;;;;;;;;;20.60;74.50;;;;;;4932983;28;94703;-38
2023/10/04 00:03:51;;;;;;;;;;;20.60;74.30;;;;;;4932719;28;94805;-38
2023/10/04 00:06:17;;;;;;;;;;;20.60;74.30;;;;;;4934632;28;95843;-38
2023/10/04 00:08:43;;;;;;;;;;;20.60;74.30;;;;;;4933887;28;94918;-38
2023/10/04 00:11:12;;;;;;;;;;;20.60;74.50;;;;;;4931036;28;95736;-38
2023/10/04 00:13:38;;;;;;;;;;;20.60;74.50;;;;;;4929281;28;96532;-38
2023/10/04 00:16:03;;;;;;;;;;;20.50;74.40;;;;;;4935608;28;96139;-38
2023/10/04 00:18:29;;;;;;;;;;;20.60;74.30;;;;;;4934025;28;95365;-38
2023/10/04 00:20:55;;;;;;;;;;;20.60;75.00;;;;;;4937883;28;95404;-38
2023/10/04 00:23:21;;;;;;;;;;;20.50;74.20;;;;;;4936155;28;95655;-38
2023/10/04 00:25:46;;;;;;;;;;;20.50;74.30;;;;;;4930947;28;95290;-38
2023/10/04 00:28:12;;;;;;;;;;;20.50;74.40;;;;;;4937255;28;94259;-38
2023/10/04 00:30:37;;;;;;;;;;;20.50;74.50;;;;;;4933821;28;94684;-38
2023/10/04 00:33:04;;;;;;;;;;;20.50;74.50;;;;;;4934519;28;94736;-38
2023/10/04 00:35:30;;;;;;;;;;;20.50;74.50;;;;;;4923450;28;94695;-38
2023/10/04 00:37:57;;;;;;;;;;;20.50;74.50;;;;;;4941197;28;94789;-39
2023/10/04 00:40:24;;;;;;;;;;;20.50;75.30;;;;;;4930131;28;101003;-38
2023/10/04 00:42:49;;;;;;;;;;;20.40;74.60;;;;;;4928239;28;97478;-38
2023/10/04 00:45:15;;;;;;;;;;;20.50;74.60;;;;;;4934143;28;100515;-38
2023/10/04 00:47:47;;;;;;;;;;;20.40;74.60;;;;;;4930381;28;95736;-38
2023/10/04 00:50:17;;;;;;;;;;;20.50;74.60;;;;;;4934367;28;94652;-39
2023/10/04 00:52:51;;;;;;;;;;;20.40;74.60;;;;;;4928089;28;94859;-39
2023/10/04 00:55:19;;;;;;;;;;;20.50;74.60;;;;;;4913575;28;96278;-39
2023/10/04 00:57:48;;;;;;;;;;;20.40;75.30;;;;;;4937762;28;94689;-39
2023/10/04 01:00:13;;;;;;;;;;;20.40;74.60;;;;;;4933870;28;98544;-42
2023/10/04 01:02:39;;;;;;;;;;;20.40;74.60;;;;;;4924511;28;95095;-40
2023/10/04 01:05:06;;;;;;;;;;;20.40;74.60;;;;;;4926654;28;94338;-39
2023/10/04 01:07:31;;;;;;;;;;;20.50;74.50;;;;;;4932931;28;95393;-39
2023/10/04 01:09:58;;;;;;;;;;;20.40;74.50;;;;;;4930676;28;94800;-40
2023/10/04 01:12:24;;;;;;;;;;;20.40;74.50;;;;;;4938406;28;96358;-39
2023/10/04 01:14:53;;;;;;;;;;;20.40;74.60;;;;;;4937458;28;96467;-40
2023/10/04 01:17:19;;;;;;;;;;;20.40;74.60;;;;;;4932636;28;95500;-39
2023/10/04 01:19:44;;;;;;;;;;;20.40;74.60;;;;;;4935598;28;95748;-39
2023/10/04 01:22:11;;;;;;;;;;;20.40;74.70;;;;;;4937361;28;94662;-39
2023/10/04 01:24:41;;;;;;;;;;;20.40;74.70;;;;;;4944380;28;95378;-39
2023/10/04 01:27:07;;;;;;;;;;;20.40;74.70;;;;;;4932658;28;95964;-39
2023/10/04 01:29:32;;;;;;;;;;;20.40;74.70;;;;;;4935694;28;96248;-41
2023/10/04 01:31:58;;;;;;;;;;;20.40;74.60;;;;;;4928853;28;96884;-40
2023/10/04 01:34:23;;;;;;;;;;;20.40;74.60;;;;;;4937853;28;94990;-38
2023/10/04 01:36:49;;;;;;;;;;;20.40;74.50;;;;;;4930430;28;96111;-40
2023/10/04 01:39:18;;;;;;;;;;;20.30;74.50;;;;;;4936122;28;95662;-40
2023/10/04 01:41:43;;;;;;;;;;;20.30;74.60;;;;;;4931730;28;96598;-39
2023/10/04 01:44:10;;;;;;;;;;;20.30;74.60;;;;;;4936797;28;96950;-39
2023/10/04 01:46:37;;;;;;;;;;;20.30;74.60;;;;;;4930619;28;95254;-40
2023/10/04 01:49:02;;;;;;;;;;;20.30;74.60;;;;;;4934981;28;95201;-39
2023/10/04 01:51:29;;;;;;;;;;;20.30;74.60;;;;;;4937404;28;95260;-40
2023/10/04 01:53:58;;;;;;;;;;;20.30;74.50;;;;;;4929165;28;93919;-39
2023/10/04 01:56:23;;;;;;;;;;;20.30;74.50;;;;;;4938810;28;98802;-40
2023/10/04 01:58:49;;;;;;;;;;;20.30;74.60;;;;;;4936317;28;94935;-38
2023/10/04 02:01:14;;;;;;;;;;;20.30;74.70;;;;;;4932656;28;96409;-38
2023/10/04 02:03:40;;;;;;;;;;;20.30;74.70;;;;;;4927731;28;97033;-39
2023/10/04 02:06:07;;;;;;;;;;;20.30;74.70;;;;;;4930752;28;95671;-38
2023/10/04 02:08:33;;;;;;;;;;;20.30;74.70;;;;;;4931303;28;100106;-38
2023/10/04 02:10:58;;;;;;;;;;;20.30;74.70;;;;;;4935560;28;96078;-38
2023/10/04 02:13:27;;;;;;;;;;;20.30;74.60;;;;;;4931961;28;95383;-38
2023/10/04 02:15:53;;;;;;;;;;;20.30;74.70;;;;;;4932320;28;94925;-38
2023/10/04 02:18:19;;;;;;;;;;;20.20;74.70;;;;;;4933614;28;94003;-38
2023/10/04 02:20:49;;;;;;;;;;;20.30;74.80;;;;;;4934713;28;95081;-38
2023/10/04 02:23:15;;;;;;;;;;;20.30;74.70;;;;;;4934409;28;95028;-38
2023/10/04 02:25:40;;;;;;;;;;;20.30;74.70;;;;;;4930808;28;95716;-38
2023/10/04 02:28:11;;;;;;;;;;;20.20;74.60;;;;;;4939576;28;95069;-38
2023/10/04 02:30:40;;;;;;;;;;;20.20;74.70;;;;;;4932510;28;97662;-38
2023/10/04 02:33:13;;;;;;;;;;;20.20;74.80;;;;;;4930862;28;95457;-38
2023/10/04 02:35:45;;;;;;;;;;;20.20;74.90;;;;;;4930109;28;94720;-38
2023/10/04 02:38:16;;;;;;;;;;;20.20;74.80;;;;;;4931172;28;94868;-38
2023/10/04 02:40:43;;;;;;;;;;;20.20;74.80;;;;;;4933189;28;94841;-40
2023/10/04 02:43:09;;;;;;;;;;;20.20;74.80;;;;;;4927666;28;94063;-38
2023/10/04 02:45:36;;;;;;;;;;;20.20;74.80;;;;;;4934606;28;96313;-38
2023/10/04 02:48:03;;;;;;;;;;;20.20;74.70;;;;;;4931887;28;94576;-38
2023/10/04 02:50:29;;;;;;;;;;;20.20;74.80;;;;;;4931548;28;95778;-38
2023/10/04 02:52:56;;;;;;;;;;;20.20;74.80;;;;;;4931512;28;96649;-38
2023/10/04 02:55:21;;;;;;;;;;;20.20;75.00;;;;;;4934470;28;95772;-38
2023/10/04 02:57:51;;;;;;;;;;;20.10;74.90;;;;;;4934728;28;95717;-38
2023/10/04 03:00:17;;;;;;;;;;;20.10;74.90;;;;;;4931262;28;95347;-38
2023/10/04 03:02:47;;;;;;;;;;;20.10;75.00;;;;;;4928608;28;94852;-38
2023/10/04 03:05:14;;;;;;;;;;;20.10;75.00;;;;;;4930960;28;95667;-38
2023/10/04 03:07:41;;;;;;;;;;;20.10;74.90;;;;;;4930723;28;94082;-38
2023/10/04 03:10:08;;;;;;;;;;;20.10;75.00;;;;;;4935658;28;95125;-38
2023/10/04 03:12:33;;;;;;;;;;;20.10;74.90;;;;;;4934121;28;95265;-38
2023/10/04 03:14:59;;;;;;;;;;;20.10;75.10;;;;;;4931334;28;96678;-38
2023/10/04 03:17:25;;;;;;;;;;;20.10;75.00;;;;;;4927660;28;97250;-38
2023/10/04 03:19:51;;;;;;;;;;;20.10;75.00;;;;;;4928892;28;95761;-38
2023/10/04 03:22:19;;;;;;;;;;;20.10;74.90;;;;;;4925196;28;96046;-39
2023/10/04 03:24:45;;;;;;;;;;;20.00;74.90;;;;;;4931157;28;96509;-38
2023/10/04 03:27:12;;;;;;;;;;;20.00;75.10;;;;;;4935020;28;96421;-39
2023/10/04 03:29:37;;;;;;;;;;;20.00;75.00;;;;;;4936482;28;95187;-39
2023/10/04 03:32:03;;;;;;;;;;;20.00;74.90;;;;;;4935258;28;95453;-38
2023/10/04 03:34:29;;;;;;;;;;;20.00;75.00;;;;;;4930936;28;94976;-38
2023/10/04 03:36:54;;;;;;;;;;;20.00;75.00;;;;;;4929813;28;95060;-38
2023/10/04 03:39:25;;;;;;;;;;;20.00;75.00;;;;;;4935103;28;97234;-39
2023/10/04 03:41:51;;;;;;;;;;;20.00;75.10;;;;;;4932463;28;97024;-38
2023/10/04 03:44:17;;;;;;;;;;;20.00;75.40;;;;;;4934987;28;94664;-38
2023/10/04 03:46:43;;;;;;;;;;;20.00;75.30;;;;;;4939411;28;98052;-38
2023/10/04 03:49:09;;;;;;;;;;;20.00;75.30;;;;;;4930612;28;96077;-38
2023/10/04 03:51:34;;;;;;;;;;;20.00;75.40;;;;;;4932545;28;94783;-38
2023/10/04 03:54:05;;;;;;;;;;;20.00;75.20;;;;;;4929603;28;94770;-38
2023/10/04 03:56:30;;;;;;;;;;;20.00;75.20;;;;;;4931123;28;94577;-37
2023/10/04 03:58:57;;;;;;;;;;;20.00;75.20;;;;;;4939217;28;96223;-38
2023/10/04 04:01:26;;;;;;;;;;;20.00;75.10;;;;;;4932042;28;95170;-38
2023/10/04 04:03:51;;;;;;;;;;;20.00;75.10;;;;;;4933729;28;95682;-38
2023/10/04 04:06:17;;;;;;;;;;;19.90;75.10;;;;;;4937353;28;95311;-38
2023/10/04 04:08:42;;;;;;;;;;;19.90;75.10;;;;;;4935668;28;100793;-38
2023/10/04 04:11:08;;;;;;;;;;;19.90;75.10;;;;;;4933055;28;95647;-38
2023/10/04 04:13:35;;;;;;;;;;;19.90;75.00;;;;;;4937117;28;94330;-37
2023/10/04 04:16:00;;;;;;;;;;;19.90;75.00;;;;;;4932351;28;94699;-38
2023/10/04 04:18:26;;;;;;;;;;;19.90;75.00;;;;;;4934911;28;95108;-38
2023/10/04 04:20:53;;;;;;;;;;;19.90;75.10;;;;;;4933967;28;93937;-39
2023/10/04 04:23:19;;;;;;;;;;;19.90;75.10;;;;;;4932330;28;95274;-38
2023/10/04 04:25:46;;;;;;;;;;;19.80;74.90;;;;;;4935073;28;94750;-38
2023/10/04 04:28:13;;;;;;;;;;;19.90;75.00;;;;;;4934770;28;95665;-38
2023/10/04 04:30:38;;;;;;;;;;;19.90;75.00;;;;;;4931528;28;95863;-38
2023/10/04 04:33:07;;;;;;;;;;;19.90;75.60;;;;;;4934562;28;95096;-38
2023/10/04 04:38:22;;;;;;;;;;;19.90;74.90;;;;;;4933517;28;96017;-38
2023/10/04 04:40:55;;;;;;;;;;;19.80;74.70;;;;;;4925380;28;99409;-37
2023/10/04 04:45:51;;;;;;;;;;;19.80;74.90;;;;;;4938491;28;95485;-38
2023/10/04 04:48:23;;;;;;;;;;;19.80;74.80;;;;;;4930732;28;97393;-37
2023/10/04 04:50:49;;;;;;;;;;;19.80;75.20;;;;;;4929562;28;95176;-38
2023/10/04 04:53:18;;;;;;;;;;;19.80;75.10;;;;;;4933315;28;95997;-38
2023/10/04 04:55:44;;;;;;;;;;;19.80;75.10;;;;;;4931407;28;95130;-38
2023/10/04 04:58:13;;;;;;;;;;;19.80;75.00;;;;;;4940274;28;95328;-38
2023/10/04 05:00:42;;;;;;;;;;;19.70;75.00;;;;;;4933751;28;95481;-38
2023/10/04 05:03:08;;;;;;;;;;;19.80;75.00;;;;;;4931058;28;95366;-39
2023/10/04 05:05:34;;;;;;;;;;;19.80;74.90;;;;;;4929131;28;94864;-38
2023/10/04 05:08:00;;;;;;;;;;;19.70;74.70;;;;;;4932031;28;94899;-38
2023/10/04 05:10:30;;;;;;;;;;;19.70;74.90;;;;;;4935114;28;95098;-39
2023/10/04 05:12:55;;;;;;;;;;;19.80;74.90;;;;;;4930264;28;96112;-38
2023/10/04 05:15:32;;;;;;;;;;;19.70;75.20;;;;;;4930874;28;98443;-38
2023/10/04 05:18:06;;;;;;;;;;;19.70;75.00;;;;;;4923503;28;96624;-38
2023/10/04 05:20:32;;;;;;;;;;;19.70;75.10;;;;;;4932382;28;99506;-38
2023/10/04 05:22:58;;;;;;;;;;;19.70;75.10;;;;;;4922696;28;95160;-38
2023/10/04 05:25:23;;;;;;;;;;;19.70;75.10;;;;;;4938092;28;94759;-38
2023/10/04 05:27:49;;;;;;;;;;;19.70;75.30;;;;;;4934291;28;96592;-38
2023/10/04 05:30:16;;;;;;;;;;;19.70;75.40;;;;;;4931164;28;94714;-38
2023/10/04 05:32:45;;;;;;;;;;;19.70;75.40;;;;;;4926101;28;95743;-38
2023/10/04 05:35:17;;;;;;;;;;;19.70;75.30;;;;;;4928754;28;93941;-38
2023/10/04 05:37:44;;;;;;;;;;;19.70;75.40;;;;;;4919225;28;98022;-38
2023/10/04 05:40:16;;;;;;;;;;;19.70;75.60;;;;;;4933149;28;94971;-38
2023/10/04 05:42:48;;;;;;;;;;;19.70;75.90;;;;;;4931062;28;95364;-38
2023/10/04 05:45:14;;;;;;;;;;;19.70;75.80;;;;;;4933239;28;95777;-37
2023/10/04 05:47:40;;;;;;;;;;;19.70;75.80;;;;;;4915844;28;95442;-38
2023/10/04 05:50:10;;;;;;;;;;;19.70;76.00;;;;;;4935056;28;99677;-38
2023/10/04 05:52:37;;;;;;;;;;;19.70;76.20;;;;;;4926537;28;95461;-39
2023/10/04 05:55:03;;;;;;;;;;;19.70;76.20;;;;;;4935439;28;94805;-38
2023/10/04 05:57:29;;;;;;;;;;;19.70;76.30;;;;;;4931648;28;95563;-38
2023/10/04 05:59:55;;;;;;;;;;;19.70;76.20;;;;;;4925627;28;96456;-38
2023/10/04 06:02:22;;;;;;;;;;;19.60;76.10;;;;;;4927171;28;97547;-38
2023/10/04 06:04:48;;;;;;;;;;;19.60;76.20;;;;;;4934918;28;96213;-38
2023/10/04 06:07:13;;;;;;;;;;;19.60;76.10;;;;;;4930899;28;96515;-38
2023/10/04 06:09:42;;;;;;;;;;;19.60;76.20;;;;;;4932211;28;96127;-38
2023/10/04 06:12:08;;;;;;;;;;;19.60;76.20;;;;;;4908895;28;95196;-38
2023/10/04 06:14:35;;;;;;;;;;;19.60;76.20;;;;;;4909041;28;97032;-38
2023/10/04 06:17:00;;;;;;;;;;;19.60;76.00;;;;;;4905568;28;96658;-39
2023/10/04 06:19:28;;;;;;;;;;;19.70;76.00;;;;;;4911307;28;96025;-38
2023/10/04 06:21:53;;;;;;;;;;;19.90;76.00;;;;;;4916356;28;95997;-38
2023/10/04 06:24:19;;;;;;;;;;;20.00;75.60;;;;;;4935433;28;94886;-38
2023/10/04 06:26:44;;;;;;;;;;;20.00;75.20;;;;;;4942518;28;95555;-38
2023/10/04 06:29:10;;;;;;;;;;;20.10;75.90;;;;;;4932242;28;100112;-38
2023/10/04 06:31:35;;;;;;;;;;;20.10;74.90;;;;;;4932122;28;95872;-39
2023/10/04 06:34:03;;;;;;;;;;;20.10;74.70;;;;;;4930136;28;95179;-39
2023/10/04 06:36:29;;;;;;;;;;;20.10;74.70;;;;;;4934796;28;94842;-39
2023/10/04 06:38:55;;;;;;;;;;;20.10;74.60;;;;;;4943681;28;95513;-38
2023/10/04 06:41:25;;;;;;;;;;;20.10;74.50;;;;;;4922425;28;96152;-39
2023/10/04 06:43:50;;;;;;;;;;;20.10;74.40;;;;;;4926487;28;94865;-39
2023/10/04 06:46:17;;;;;;;;;;;20.10;74.50;;;;;;4927983;28;96164;-37
2023/10/04 06:48:42;;;;;;;;;;;20.20;74.90;;;;;;4938557;28;94224;-37
2023/10/04 06:51:08;;;;;;;;;;;20.20;74.70;;;;;;4930734;28;94737;-38
2023/10/04 06:53:33;;;;;;;;;;;20.30;74.80;;;;;;4927875;28;96032;-39
2023/10/04 06:55:59;;;;;;;;;;;20.30;74.50;;;;;;4927596;28;99084;-38
2023/10/04 06:58:25;;;;;;;;;;;20.30;74.40;;;;;;4931490;28;96223;-39
2023/10/04 07:00:50;;;;;;;;;;;20.40;74.80;;;;;;4929398;28;96173;-41
2023/10/04 07:03:16;;;;;;;;;;;20.40;74.10;;;;;;4936613;28;94820;-40
2023/10/04 07:05:43;;;;;;;;;;;20.40;73.60;;;;;;4939049;28;95229;-40
2023/10/04 07:08:12;;;;;;;;;;;20.40;73.40;;;;;;4936449;28;95355;-39
2023/10/04 07:10:38;;;;;;;;;;;20.40;73.20;;;;;;4940959;28;94592;-39
2023/10/04 07:13:05;;;;;;;;;;;20.40;73.20;;;;;;4930580;28;94438;-39
2023/10/04 07:15:35;;;;;;;;;;;20.50;73.20;;;;;;4934892;28;95047;-38
2023/10/04 07:18:02;;;;;;;;;;;20.50;73.20;;;;;;4929014;28;98513;-37
2023/10/04 07:20:28;;;;;;;;;;;20.50;73.10;;;;;;4936000;28;95513;-37
2023/10/04 07:22:58;;;;;;;;;;;20.60;73.00;;;;;;4931828;28;94771;-36
2023/10/04 07:25:28;;;;;;;;;;;20.60;72.80;;;;;;4926542;28;98180;-38
2023/10/04 07:27:55;;;;;;;;;;;20.60;72.90;;;;;;4917703;28;95709;-39
2023/10/04 07:30:22;;;;;;;;;;;20.70;72.80;;;;;;4901737;28;95220;-37
2023/10/04 07:32:48;;;;;;;;;;;20.70;72.70;;;;;;4932426;28;95142;-40
2023/10/04 07:35:16;;;;;;;;;;;20.70;72.70;;;;;;4928359;28;96600;-40
2023/10/04 07:37:43;;;;;;;;;;;20.70;72.50;;;;;;4932812;28;95667;-40
2023/10/04 07:40:09;;;;;;;;;;;20.80;72.40;;;;;;4939509;28;94898;-40
2023/10/04 07:42:38;;;;;;;;;;;20.70;72.30;;;;;;4932491;28;96130;-40
2023/10/04 07:45:04;;;;;;;;;;;20.70;72.40;;;;;;4937150;28;100220;-39
2023/10/04 07:47:31;;;;;;;;;;;20.70;72.40;;;;;;4914740;28;94954;-39
2023/10/04 07:49:56;;;;;;;;;;;20.70;72.40;;;;;;4933292;28;95722;-39
2023/10/04 07:52:22;;;;;;;;;;;20.80;72.50;;;;;;4928577;28;95656;-38
2023/10/04 07:54:47;;;;;;;;;;;20.20;68.10;;;;;;4929253;28;99148;-36
2023/10/04 07:57:13;;;;;;;;;;;19.90;69.70;;;;;;4927001;28;97452;-36
2023/10/04 07:59:41;;;;;;;;;;;19.60;70.30;;;;;;4928338;28;97763;-37
2023/10/04 08:02:06;;;;;;;;;;;19.20;72.30;;;;;;4920959;28;96375;-37
2023/10/04 08:04:33;;;;;;;;;;;19.00;72.20;;;;;;4922599;28;99649;-37
2023/10/04 08:06:59;;;;;;;;;;;18.80;72.60;;;;;;4931993;28;95647;-36
2023/10/04 08:09:25;;;;;;;;;;;19.00;73.60;;;;;;4927007;28;101390;-37
2023/10/04 08:11:52;;;;;;;;;;;19.00;72.00;;;;;;4937043;28;96516;-45
2023/10/04 08:14:20;;;;;;;;;;;19.00;73.30;;;;;;4926523;28;96213;-47
2023/10/04 08:16:48;;;;;;;;;;;19.10;74.70;;;;;;4929309;28;94887;-46
2023/10/04 08:19:13;;;;;;;;;;;19.20;72.80;;;;;;4925987;28;94812;-47
2023/10/04 08:21:39;;;;;;;;;;;19.10;74.50;;;;;;4930757;28;95736;-46
2023/10/04 08:24:04;;;;;;;;;;;19.30;73.30;;;;;;4922604;28;95820;-43
2023/10/04 08:26:31;;;;;;;;;;;19.10;73.10;;;;;;4928720;28;94550;-45
2023/10/04 08:28:56;;;;;;;;;;;18.80;74.30;;;;;;4936074;28;96351;-44
2023/10/04 08:31:22;;;;;;;;;;;18.60;75.30;;;;;;4933640;28;95671;-44
2023/10/04 08:33:48;;;;;;;;;;;18.50;76.70;;;;;;4933312;28;96670;-45
2023/10/04 08:36:15;;;;;;;;;;;18.50;76.70;;;;;;4924613;28;97589;-43
2023/10/04 08:38:44;;;;;;;;;;;18.50;76.50;;;;;;4934735;28;94876;-44
2023/10/04 08:41:10;;;;;;;;;;;18.50;77.00;;;;;;4928692;28;95113;-43
2023/10/04 08:43:37;;;;;;;;;;;18.50;76.30;;;;;;4939321;28;95061;-44
2023/10/04 08:46:03;;;;;;;;;;;18.50;76.00;;;;;;4923187;28;96415;-43
2023/10/04 08:48:29;;;;;;;;;;;18.40;77.60;;;;;;4937280;28;96104;-44
2023/10/04 08:50:57;;;;;;;;;;;18.30;78.00;;;;;;4938765;28;93990;-45
2023/10/04 08:53:41;;;;;;;;;;;18.30;77.90;;;;;;4927465;28;95445;-44
2023/10/04 08:56:12;;;;;;;;;;;18.30;78.40;;;;;;4938674;28;94846;-43
2023/10/04 08:58:40;;;;;;;;;;;18.40;79.00;;;;;;4939933;28;95702;-42
2023/10/04 09:01:10;;;;;;;;;;;18.30;79.00;;;;;;4937354;28;94847;-43
2023/10/04 09:03:37;;;;;;;;;;;18.20;81.10;;;;;;4933123;28;96431;-44
2023/10/04 09:06:05;;;;;;;;;;;18.20;81.40;;;;;;4936745;28;97401;-45
2023/10/04 09:08:31;;;;;;;;;;;18.20;81.70;;;;;;4930790;28;95866;-45
2023/10/04 09:10:57;;;;;;;;;;;18.30;82.00;;;;;;4933268;28;95860;-44
2023/10/04 09:13:23;;;;;;;;;;;18.20;82.70;;;;;;4934179;28;95663;-45
2023/10/04 09:15:48;;;;;;;;;;;18.20;83.00;;;;;;4932637;28;94757;-44
2023/10/04 09:18:23;;;;;;;;;;;18.30;83.10;;;;;;4927700;28;95634;-46
2023/10/04 09:20:50;;;;;;;;;;;18.20;82.30;;;;;;4924619;28;96116;-40
2023/10/04 09:23:19;;;;;;;;;;;18.20;82.80;;;;;;4929017;28;96496;-36
2023/10/04 09:25:46;;;;;;;;;;;18.30;83.00;;;;;;4930668;28;95692;-36
2023/10/04 09:28:12;;;;;;;;;;;18.30;83.60;;;;;;4932580;28;94621;-36
2023/10/04 09:30:37;;;;;;;;;;;18.30;83.50;;;;;;4931749;28;95029;-37
2023/10/04 09:33:07;;;;;;;;;;;18.40;83.80;;;;;;4926942;28;95094;-35
2023/10/04 09:35:42;;;;;;;;;;;18.40;84.00;;;;;;4935196;28;97381;-35
2023/10/04 09:38:17;;;;;;;;;;;18.40;83.10;;;;;;4929080;28;94928;-35
2023/10/04 09:40:52;;;;;;;;;;;18.60;82.80;;;;;;4936461;28;93883;-37
2023/10/04 09:43:29;;;;;;;;;;;18.70;81.40;;;;;;4932903;28;95975;-36
2023/10/04 09:45:56;;;;;;;;;;;18.70;81.30;;;;;;4932832;28;94785;-36
2023/10/04 09:48:23;;;;;;;;;;;18.80;80.90;;;;;;4933902;28;96621;-35
2023/10/04 09:50:49;;;;;;;;;;;18.80;81.30;;;;;;4933402;28;96836;-36
2023/10/04 09:53:14;;;;;;;;;;;18.80;81.30;;;;;;4934575;28;94695;-37
2023/10/04 09:55:40;;;;;;;;;;;18.90;80.80;;;;;;4928214;28;95255;-35
2023/10/04 09:58:10;;;;;;;;;;;18.90;81.10;;;;;;4938120;28;94616;-36
2023/10/04 10:00:35;;;;;;;;;;;19.00;81.00;;;;;;4934934;28;95935;-35
2023/10/04 10:03:03;;;;;;;;;;;19.20;79.80;;;;;;4927139;28;95077;-37
2023/10/04 10:05:31;;;;;;;;;;;19.30;79.10;;;;;;4924071;28;94367;-39
2023/10/04 10:08:04;;;;;;;;;;;19.30;79.40;;;;;;4930027;28;95274;-38
2023/10/04 10:10:33;;;;;;;;;;;19.40;78.20;;;;;;4929627;28;95540;-38
2023/10/04 10:12:59;;;;;;;;;;;19.40;77.10;;;;;;4922231;28;97226;-38
2023/10/04 10:15:24;;;;;;;;;;;19.30;77.30;;;;;;4933633;28;94667;-38
2023/10/04 10:17:51;;;;;;;;;;;19.40;78.10;;;;;;4923927;28;94742;-38
2023/10/04 10:20:19;;;;;;;;;;;19.40;76.80;;;;;;4930400;28;95669;-38
2023/10/04 10:22:58;;;;;;;;;;;19.40;77.40;;;;;;4929004;28;94761;-38
2023/10/04 10:25:25;;;;;;;;;;;19.60;77.90;;;;;;4909376;28;99162;-38
2023/10/04 10:27:55;;;;;;;;;;;19.80;76.70;;;;;;4919523;28;96712;-39
2023/10/04 10:30:21;;;;;;;;;;;19.90;76.20;;;;;;4921734;28;96939;-38
2023/10/04 10:32:55;;;;;;;;;;;19.80;76.70;;;;;;4925123;28;97749;-39
2023/10/04 10:35:40;;;;;;;;;;;19.70;77.10;;;;;;4929792;28;96943;-38
2023/10/04 10:38:24;;;;;;;;;;;19.70;76.90;;;;;;4931953;28;100353;-38
2023/10/04 10:40:49;;;;;;;;;;;19.70;75.90;;;;;;4938420;28;95440;-38
2023/10/04 10:43:15;;;;;;;;;;;19.70;77.10;;;;;;4935883;28;96038;-38
2023/10/04 10:45:41;;;;;;;;;;;19.80;76.70;;;;;;4946106;28;97473;-39
2023/10/04 10:48:08;;;;;;;;;;;19.80;75.80;;;;;;4942389;28;95779;-38
2023/10/04 10:50:34;;;;;;;;;;;19.70;75.30;;;;;;4935701;28;95000;-39
2023/10/04 10:53:03;;;;;;;;;;;19.80;74.60;;;;;;4934053;28;95541;-38
2023/10/04 10:55:28;;;;;;;;;;;19.80;73.80;;;;;;4935794;28;95538;-38
2023/10/04 10:57:57;;;;;;;;;;;19.80;73.80;;;;;;4941813;28;95600;-39
2023/10/04 11:00:23;;;;;;;;;;;19.80;74.70;;;;;;4933082;28;94883;-36
2023/10/04 11:02:53;;;;;;;;;;;19.80;73.70;;;;;;4933981;28;97675;-36
2023/10/04 11:05:20;;;;;;;;;;;19.90;73.70;;;;;;4940060;28;95058;-37
2023/10/04 11:07:50;;;;;;;;;;;20.00;74.50;;;;;;4931128;28;97295;-35
2023/10/04 11:10:16;;;;;;;;;;;20.10;72.90;;;;;;4931886;28;99734;-35
2023/10/04 11:12:42;;;;;;;;;;;20.10;73.80;;;;;;4929310;28;96934;-34
2023/10/04 11:15:09;;;;;;;;;;;20.10;72.30;;;;;;4929525;28;94841;-36
2023/10/04 11:17:37;;;;;;;;;;;20.10;72.80;;;;;;4936893;28;95293;-35
2023/10/04 11:20:09;;;;;;;;;;;20.20;73.20;;;;;;4929212;28;96815;-35
2023/10/04 11:22:36;;;;;;;;;;;20.40;70.80;;;;;;4931988;28;95297;-35
2023/10/04 11:25:01;;;;;;;;;;;20.60;69.80;;;;;;4924560;28;95572;-36
2023/10/04 11:27:27;;;;;;;;;;;20.60;70.60;;;;;;4932729;28;96490;-36
2023/10/04 11:29:53;;;;;;;;;;;20.60;70.70;;;;;;4931122;28;97688;-36
2023/10/04 11:32:19;;;;;;;;;;;20.60;70.30;;;;;;4942479;28;96005;-38
2023/10/04 11:34:45;;;;;;;;;;;20.40;70.20;;;;;;4932865;28;95663;-36
2023/10/04 11:37:13;;;;;;;;;;;20.50;69.10;;;;;;4938831;28;95754;-36
2023/10/04 11:39:39;;;;;;;;;;;20.50;69.20;;;;;;4936023;28;94757;-35
2023/10/04 11:42:14;;;;;;;;;;;20.50;69.20;;;;;;4937170;28;95559;-36
2023/10/04 11:44:41;;;;;;;;;;;20.50;69.50;;;;;;4941955;28;94810;-36
2023/10/04 11:47:08;;;;;;;;;;;20.60;68.20;;;;;;4935062;28;94976;-36
2023/10/04 11:49:34;;;;;;;;;;;20.70;67.60;;;;;;4939183;28;95677;-37
2023/10/04 11:52:07;;;;;;;;;;;20.70;67.60;;;;;;4930453;28;96080;-36
2023/10/04 11:54:36;;;;;;;;;;;20.70;68.20;;;;;;4933022;28;94856;-36
2023/10/04 11:57:03;;;;;;;;;;;20.70;66.80;;;;;;4931676;28;96620;-36
2023/10/04 11:59:30;;;;;;;;;;;20.80;67.50;;;;;;4921460;28;95102;-36
2023/10/04 12:01:55;;;;;;;;;;;20.80;66.20;;;;;;4922531;28;95544;-37
2023/10/04 12:04:21;;;;;;;;;;;20.80;65.40;;;;;;4926803;28;95120;-36
2023/10/04 12:06:57;;;;;;;;;;;21.00;65.30;;;;;;4927352;28;95965;-37
2023/10/04 12:09:23;;;;;;;;;;;21.00;64.20;;;;;;4917357;28;95878;-38
2023/10/04 12:11:49;;;;;;;;;;;20.90;65.00;;;;;;4928362;28;95105;-36
2023/10/04 12:14:15;;;;;;;;;;;21.00;64.80;;;;;;4932025;28;97855;-36
2023/10/04 12:16:42;;;;;;;;;;;21.20;63.80;;;;;;4926883;28;95688;-36
2023/10/04 12:19:07;;;;;;;;;;;21.20;63.20;;;;;;4919855;28;94890;-36
2023/10/04 12:21:35;;;;;;;;;;;21.30;62.50;;;;;;4932826;28;95743;-36
2023/10/04 12:24:04;;;;;;;;;;;21.30;62.10;;;;;;4919659;28;95879;-36
2023/10/04 12:26:30;;;;;;;;;;;21.30;61.70;;;;;;4931598;28;101068;-37
2023/10/04 12:28:56;;;;;;;;;;;21.30;61.10;;;;;;4931420;28;96750;-36
2023/10/04 12:31:22;;;;;;;;;;;21.30;60.90;;;;;;4925175;28;95157;-37
2023/10/04 12:33:47;;;;;;;;;;;21.20;62.40;;;;;;4924544;28;98829;-37
2023/10/04 12:36:13;;;;;;;;;;;21.30;62.90;;;;;;4925121;28;94968;-36
2023/10/04 12:38:38;;;;;;;;;;;21.30;61.40;;;;;;4935872;28;95878;-36
2023/10/04 12:41:05;;;;;;;;;;;21.40;61.40;;;;;;4930320;28;97556;-36
2023/10/04 12:43:31;;;;;;;;;;;21.40;61.20;;;;;;4927717;28;96307;-35
2023/10/04 12:45:57;;;;;;;;;;;21.30;61.40;;;;;;4927392;28;95484;-36
2023/10/04 12:48:22;;;;;;;;;;;21.30;61.90;;;;;;4933687;28;94898;-36
2023/10/04 12:50:49;;;;;;;;;;;21.30;63.00;;;;;;4934644;28;97285;-37
2023/10/04 12:53:15;;;;;;;;;;;21.30;61.50;;;;;;4929847;28;95858;-37
2023/10/04 12:55:44;;;;;;;;;;;21.40;61.50;;;;;;4926020;28;95595;-35
2023/10/04 12:58:10;;;;;;;;;;;21.40;59.90;;;;;;4929968;28;94564;-36
2023/10/04 13:00:36;;;;;;;;;;;21.50;58.70;;;;;;4914851;28;95744;-37
2023/10/04 13:03:03;;;;;;;;;;;21.40;59.20;;;;;;4917589;28;96921;-45
2023/10/04 13:05:29;;;;;;;;;;;21.40;58.90;;;;;;4930533;28;96612;-45
2023/10/04 13:07:55;;;;;;;;;;;21.40;58.90;;;;;;4924750;28;94669;-45
2023/10/04 13:10:22;;;;;;;;;;;21.40;58.80;;;;;;4932456;28;95620;-44
2023/10/04 13:12:48;;;;;;;;;;;21.40;59.10;;;;;;4922742;28;96060;-42
2023/10/04 13:15:14;;;;;;;;;;;21.30;58.70;;;;;;4922607;28;96588;-44
2023/10/04 13:17:40;;;;;;;;;;;21.30;59.20;;;;;;4929861;28;94797;-46
2023/10/04 13:20:17;;;;;;;;;;;21.30;58.60;;;;;;4926723;28;96129;-45
2023/10/04 13:22:45;;;;;;;;;;;21.30;58.20;;;;;;4930069;28;96090;-46
2023/10/04 13:25:12;;;;;;;;;;;21.30;58.50;;;;;;4926006;28;95204;-47
2023/10/04 13:27:37;;;;;;;;;;;21.30;59.40;;;;;;4923177;28;96960;-45
2023/10/04 13:30:04;;;;;;;;;;;21.20;60.20;;;;;;4920212;28;95829;-45
2023/10/04 13:32:31;;;;;;;;;;;21.30;60.40;;;;;;4925351;28;96815;-45
2023/10/04 13:34:57;;;;;;;;;;;21.30;59.90;;;;;;4925097;28;95325;-47
2023/10/04 13:37:23;;;;;;;;;;;21.40;59.80;;;;;;4925903;28;99977;-46
2023/10/04 13:39:49;;;;;;;;;;;21.40;60.40;;;;;;4930522;28;95115;-48
2023/10/04 13:42:15;;;;;;;;;;;21.60;60.20;;;;;;4925311;28;94710;-46
2023/10/04 13:44:42;;;;;;;;;;;21.60;60.00;;;;;;4919596;28;93870;-46
2023/10/04 13:47:08;;;;;;;;;;;21.50;59.90;;;;;;4929447;28;94023;-46
2023/10/04 13:49:35;;;;;;;;;;;21.50;60.20;;;;;;4931387;28;96334;-46
2023/10/04 13:52:00;;;;;;;;;;;21.60;60.20;;;;;;4920335;28;99543;-43
2023/10/04 13:54:29;;;;;;;;;;;21.50;59.00;;;;;;4940595;22;95798;-70
2023/10/04 13:56:55;;;;;;;;;;;21.50;59.60;;;;;;4930666;28;95268;-73
2023/10/04 13:59:21;;;;;;;;;;;21.50;60.50;;;;;;4936977;22;94908;-36
2023/10/04 14:01:48;;;;;;;;;;;21.60;63.50;;;;;;4900547;28;96402;-40
2023/10/04 14:04:16;;;;;;;;;;;21.60;62.30;;;;;;4903261;28;96619;-37
2023/10/04 14:06:42;;;;;;;;;;;21.60;60.90;;;;;;4910177;28;95728;-39
2023/10/04 14:09:18;;;;;;;;;;;21.70;60.40;;;;;;4919217;28;97884;-37
2023/10/04 14:11:43;;;;;;;;;;;21.60;62.80;;;;;;4931617;28;95389;-38
2023/10/04 14:14:09;;;;;;;;;;;21.50;60.20;;;;;;4919844;28;96306;-39
2023/10/04 14:16:35;;;;;;;;;;;21.60;60.20;;;;;;4922771;28;96286;-37
2023/10/04 14:19:00;;;;;;;;;;;21.60;60.90;;;;;;4918296;28;98086;-37
2023/10/04 14:21:26;;;;;;;;;;;21.50;60.60;;;;;;4924610;28;95347;-38